sensor_id;sensor_type;location;lat;lon;timestamp;pressure;altitude;pressure_sealevel;temperature;humidity
23172;BME280;11754;42.664;23.594;2024-03-25T00:00:43;94108.69;;;5.41;83.24
23172;BME280;11754;42.664;23.594;2024-03-25T00:03:09;94107.06;;;5.40;83.82
23172;BME280;11754;42.664;23.594;2024-03-25T00:05:34;94117.41;;;5.25;84.84
23172;BME280;11754;42.664;23.594;2024-03-25T00:08:00;94119.38;;;5.15;85.30
23172;BME280;11754;42.664;23.594;2024-03-25T00:10:25;94127.56;;;5.20;85.74
23172;BME280;11754;42.664;23.594;2024-03-25T00:12:50;94136.03;;;5.22;86.21
23172;BME280;11754;42.664;23.594;2024-03-25T00:15:19;94136.84;;;5.22;86.17
23172;BME280;11754;42.664;23.594;2024-03-25T00:17:46;94148.25;;;5.29;85.88
23172;BME280;11754;42.664;23.594;2024-03-25T00:20:12;94141.91;;;5.24;85.93
23172;BME280;11754;42.664;23.594;2024-03-25T00:22:38;94133.75;;;5.19;85.72
23172;BME280;11754;42.664;23.594;2024-03-25T00:25:04;94135.06;;;5.15;84.36
23172;BME280;11754;42.664;23.594;2024-03-25T00:27:29;94122.97;;;5.14;83.06
23172;BME280;11754;42.664;23.594;2024-03-25T00:29:56;94131.66;;;5.06;83.44
23172;BME280;11754;42.664;23.594;2024-03-25T00:32:21;94151.75;;;5.05;82.43
23172;BME280;11754;42.664;23.594;2024-03-25T00:34:46;94161.88;;;4.92;82.37
23172;BME280;11754;42.664;23.594;2024-03-25T00:37:12;94154.50;;;4.79;82.15
23172;BME280;11754;42.664;23.594;2024-03-25T00:39:38;94158.59;;;4.90;82.22
23172;BME280;11754;42.664;23.594;2024-03-25T00:42:03;94147.84;;;4.77;81.84
23172;BME280;11754;42.664;23.594;2024-03-25T00:44:29;94143.59;;;4.84;82.05
23172;BME280;11754;42.664;23.594;2024-03-25T00:46:54;94136.72;;;4.91;81.83
23172;BME280;11754;42.664;23.594;2024-03-25T00:49:20;94152.06;;;4.86;81.35
23172;BME280;11754;42.664;23.594;2024-03-25T00:51:46;94160.72;;;4.78;80.88
23172;BME280;11754;42.664;23.594;2024-03-25T00:54:12;94145.88;;;4.63;81.13
23172;BME280;11754;42.664;23.594;2024-03-25T00:56:37;94149.13;;;4.56;81.96
23172;BME280;11754;42.664;23.594;2024-03-25T00:59:03;94142.59;;;4.44;82.40
23172;BME280;11754;42.664;23.594;2024-03-25T01:01:29;94142.59;;;4.44;82.54
23172;BME280;11754;42.664;23.594;2024-03-25T01:03:55;94135.06;;;4.41;82.94
23172;BME280;11754;42.664;23.594;2024-03-25T01:06:21;94139.50;;;4.41;83.25
23172;BME280;11754;42.664;23.594;2024-03-25T01:08:46;94131.31;;;4.36;83.47
23172;BME280;11754;42.664;23.594;2024-03-25T01:11:11;94125.44;;;4.42;83.48
23172;BME280;11754;42.664;23.594;2024-03-25T01:13:37;94139.16;;;4.44;83.65
23172;BME280;11754;42.664;23.594;2024-03-25T01:16:03;94131.84;;;4.47;82.98
23172;BME280;11754;42.664;23.594;2024-03-25T01:18:28;94132.97;;;4.45;83.15
23172;BME280;11754;42.664;23.594;2024-03-25T01:20:54;94127.88;;;4.43;83.07
23172;BME280;11754;42.664;23.594;2024-03-25T01:23:20;94122.34;;;4.38;83.21
23172;BME280;11754;42.664;23.594;2024-03-25T01:25:45;94115.81;;;4.50;82.62
23172;BME280;11754;42.664;23.594;2024-03-25T01:28:10;94124.00;;;4.64;82.25
23172;BME280;11754;42.664;23.594;2024-03-25T01:30:36;94113.84;;;4.69;82.60
23172;BME280;11754;42.664;23.594;2024-03-25T01:33:04;94115.31;;;4.79;81.79
23172;BME280;11754;42.664;23.594;2024-03-25T01:35:30;94112.56;;;4.81;81.77
23172;BME280;11754;42.664;23.594;2024-03-25T01:37:56;94110.59;;;4.83;81.43
23172;BME280;11754;42.664;23.594;2024-03-25T01:40:21;94116.31;;;4.78;82.06
23172;BME280;11754;42.664;23.594;2024-03-25T01:43:01;94133.16;;;4.84;81.71
23172;BME280;11754;42.664;23.594;2024-03-25T01:45:29;94132.13;;;4.93;81.49
23172;BME280;11754;42.664;23.594;2024-03-25T01:47:56;94117.78;;;4.89;81.60
23172;BME280;11754;42.664;23.594;2024-03-25T01:50:23;94129.53;;;5.01;81.91
23172;BME280;11754;42.664;23.594;2024-03-25T01:52:49;94134.09;;;5.07;82.46
23172;BME280;11754;42.664;23.594;2024-03-25T01:55:19;94129.66;;;5.08;81.84
23172;BME280;11754;42.664;23.594;2024-03-25T01:57:46;94141.28;;;5.05;81.98
23172;BME280;11754;42.664;23.594;2024-03-25T02:00:12;94134.88;;;5.24;81.80
23172;BME280;11754;42.664;23.594;2024-03-25T02:02:40;94128.53;;;5.27;81.32
23172;BME280;11754;42.664;23.594;2024-03-25T02:05:07;94133.38;;;5.30;81.55
23172;BME280;11754;42.664;23.594;2024-03-25T02:07:35;94127.66;;;5.43;81.25
23172;BME280;11754;42.664;23.594;2024-03-25T02:10:02;94125.66;;;5.53;80.72
23172;BME280;11754;42.664;23.594;2024-03-25T02:12:29;94131.00;;;5.68;80.72
23172;BME280;11754;42.664;23.594;2024-03-25T02:14:55;94131.97;;;5.75;79.74
23172;BME280;11754;42.664;23.594;2024-03-25T02:17:20;94137.63;;;5.87;79.65
23172;BME280;11754;42.664;23.594;2024-03-25T02:19:46;94130.25;;;5.90;78.61
23172;BME280;11754;42.664;23.594;2024-03-25T02:22:11;94133.22;;;5.95;77.62
23172;BME280;11754;42.664;23.594;2024-03-25T02:24:38;94135.84;;;5.95;77.75
23172;BME280;11754;42.664;23.594;2024-03-25T02:27:03;94131.25;;;5.89;77.52
23172;BME280;11754;42.664;23.594;2024-03-25T02:29:33;94124.03;;;5.91;76.92
23172;BME280;11754;42.664;23.594;2024-03-25T02:31:59;94127.81;;;5.89;77.07
23172;BME280;11754;42.664;23.594;2024-03-25T02:34:24;94122.63;;;5.81;77.41
23172;BME280;11754;42.664;23.594;2024-03-25T02:36:50;94121.13;;;5.86;76.93
23172;BME280;11754;42.664;23.594;2024-03-25T02:39:16;94116.41;;;5.82;76.84
23172;BME280;11754;42.664;23.594;2024-03-25T02:41:42;94121.16;;;5.78;77.00
23172;BME280;11754;42.664;23.594;2024-03-25T02:44:07;94118.59;;;5.70;77.00
23172;BME280;11754;42.664;23.594;2024-03-25T02:46:32;94131.84;;;5.60;77.61
23172;BME280;11754;42.664;23.594;2024-03-25T02:48:59;94134.31;;;5.53;77.01
23172;BME280;11754;42.664;23.594;2024-03-25T02:51:24;94127.66;;;5.43;77.00
23172;BME280;11754;42.664;23.594;2024-03-25T02:53:49;94129.94;;;5.46;76.96
23172;BME280;11754;42.664;23.594;2024-03-25T02:56:15;94131.59;;;5.39;76.18
23172;BME280;11754;42.664;23.594;2024-03-25T02:58:40;94134.03;;;5.40;76.45
23172;BME280;11754;42.664;23.594;2024-03-25T03:01:05;94129.97;;;5.38;76.56
23172;BME280;11754;42.664;23.594;2024-03-25T03:03:31;94142.22;;;5.29;76.40
23172;BME280;11754;42.664;23.594;2024-03-25T03:05:56;94136.34;;;5.19;76.70
23172;BME280;11754;42.664;23.594;2024-03-25T03:08:22;94143.25;;;5.03;77.05
23172;BME280;11754;42.664;23.594;2024-03-25T03:10:47;94137.53;;;5.00;77.91
23172;BME280;11754;42.664;23.594;2024-03-25T03:13:12;94146.00;;;4.94;77.32
23172;BME280;11754;42.664;23.594;2024-03-25T03:15:38;94146.19;;;4.92;78.23
23172;BME280;11754;42.664;23.594;2024-03-25T03:18:08;94144.25;;;4.94;77.72
23172;BME280;11754;42.664;23.594;2024-03-25T03:20:33;94138.19;;;4.94;77.97
23172;BME280;11754;42.664;23.594;2024-03-25T03:22:59;94140.97;;;4.76;78.07
23172;BME280;11754;42.664;23.594;2024-03-25T03:25:24;94149.94;;;4.81;78.47
23172;BME280;11754;42.664;23.594;2024-03-25T03:27:49;94145.84;;;4.79;78.39
23172;BME280;11754;42.664;23.594;2024-03-25T03:30:15;94153.06;;;4.77;78.88
23172;BME280;11754;42.664;23.594;2024-03-25T03:32:40;94150.28;;;4.70;78.56
23172;BME280;11754;42.664;23.594;2024-03-25T03:35:06;94155.97;;;4.57;79.22
23172;BME280;11754;42.664;23.594;2024-03-25T03:37:32;94167.91;;;4.60;79.32
23172;BME280;11754;42.664;23.594;2024-03-25T03:39:57;94169.88;;;4.58;79.83
23172;BME280;11754;42.664;23.594;2024-03-25T03:42:23;94176.72;;;4.59;79.09
23172;BME280;11754;42.664;23.594;2024-03-25T03:44:48;94190.91;;;4.65;78.97
23172;BME280;11754;42.664;23.594;2024-03-25T03:47:13;94182.25;;;4.64;78.95
23172;BME280;11754;42.664;23.594;2024-03-25T03:49:39;94191.41;;;4.60;78.77
23172;BME280;11754;42.664;23.594;2024-03-25T03:52:04;94182.56;;;4.53;79.16
23172;BME280;11754;42.664;23.594;2024-03-25T03:54:30;94184.69;;;4.57;78.74
23172;BME280;11754;42.664;23.594;2024-03-25T03:56:55;94186.81;;;4.54;78.51
23172;BME280;11754;42.664;23.594;2024-03-25T03:59:21;94187.97;;;4.60;78.77
23172;BME280;11754;42.664;23.594;2024-03-25T04:01:46;94193.69;;;4.55;78.43
23172;BME280;11754;42.664;23.594;2024-03-25T04:04:12;94191.06;;;4.55;77.84
23172;BME280;11754;42.664;23.594;2024-03-25T04:06:37;94197.13;;;4.64;78.00
23172;BME280;11754;42.664;23.594;2024-03-25T04:09:06;94191.56;;;4.58;78.48
23172;BME280;11754;42.664;23.594;2024-03-25T04:11:31;94198.91;;;4.63;78.02
23172;BME280;11754;42.664;23.594;2024-03-25T04:13:57;94213.94;;;4.69;77.60
23172;BME280;11754;42.664;23.594;2024-03-25T04:16:22;94225.22;;;4.70;78.13
23172;BME280;11754;42.664;23.594;2024-03-25T04:18:48;94227.81;;;4.78;78.62
23172;BME280;11754;42.664;23.594;2024-03-25T04:21:13;94239.25;;;4.77;78.03
23172;BME280;11754;42.664;23.594;2024-03-25T04:23:39;94240.22;;;4.76;77.16
23172;BME280;11754;42.664;23.594;2024-03-25T04:26:06;94231.09;;;4.80;77.88
23172;BME280;11754;42.664;23.594;2024-03-25T04:28:32;94239.88;;;4.71;77.47
23172;BME280;11754;42.664;23.594;2024-03-25T04:30:58;94246.91;;;4.70;77.93
23172;BME280;11754;42.664;23.594;2024-03-25T04:33:23;94244.47;;;4.77;78.36
23172;BME280;11754;42.664;23.594;2024-03-25T04:35:49;94240.25;;;4.84;77.95
23172;BME280;11754;42.664;23.594;2024-03-25T04:38:17;94242.53;;;4.87;78.00
23172;BME280;11754;42.664;23.594;2024-03-25T04:40:43;94248.75;;;5.02;77.45
23172;BME280;11754;42.664;23.594;2024-03-25T04:43:09;94244.53;;;5.01;76.53
23172;BME280;11754;42.664;23.594;2024-03-25T04:45:35;94257.91;;;4.98;77.23
23172;BME280;11754;42.664;23.594;2024-03-25T04:48:00;94262.78;;;4.93;77.22
23172;BME280;11754;42.664;23.594;2024-03-25T04:50:26;94276.66;;;4.94;77.37
23172;BME280;11754;42.664;23.594;2024-03-25T04:52:51;94284.34;;;4.87;78.03
23172;BME280;11754;42.664;23.594;2024-03-25T04:55:17;94291.56;;;5.01;77.59
23172;BME280;11754;42.664;23.594;2024-03-25T04:57:43;94287.09;;;4.94;77.54
23172;BME280;11754;42.664;23.594;2024-03-25T05:00:08;94296.06;;;4.83;78.01
23172;BME280;11754;42.664;23.594;2024-03-25T05:02:37;94303.28;;;4.97;77.84
23172;BME280;11754;42.664;23.594;2024-03-25T05:05:03;94291.88;;;4.98;77.59
23172;BME280;11754;42.664;23.594;2024-03-25T05:07:28;94296.78;;;5.01;78.32
23172;BME280;11754;42.664;23.594;2024-03-25T05:09:54;94295.66;;;5.12;77.77
23172;BME280;11754;42.664;23.594;2024-03-25T05:12:19;94285.50;;;5.17;77.19
23172;BME280;11754;42.664;23.594;2024-03-25T05:14:45;94289.44;;;5.29;76.84
23172;BME280;11754;42.664;23.594;2024-03-25T05:17:11;94284.56;;;5.35;76.34
23172;BME280;11754;42.664;23.594;2024-03-25T05:19:36;94286.34;;;5.42;76.11
23172;BME280;11754;42.664;23.594;2024-03-25T05:22:01;94290.59;;;5.43;75.86
23172;BME280;11754;42.664;23.594;2024-03-25T05:24:27;94296.78;;;5.59;75.66
23172;BME280;11754;42.664;23.594;2024-03-25T05:26:53;94302.34;;;5.64;75.11
23172;BME280;11754;42.664;23.594;2024-03-25T05:29:19;94300.69;;;5.79;75.29
23172;BME280;11754;42.664;23.594;2024-03-25T05:32:00;94297.44;;;5.93;73.92
23172;BME280;11754;42.664;23.594;2024-03-25T05:34:27;94300.66;;;6.12;74.01
23172;BME280;11754;42.664;23.594;2024-03-25T05:36:52;94307.84;;;6.26;73.37
23172;BME280;11754;42.664;23.594;2024-03-25T05:39:18;94315.47;;;6.44;73.05
23172;BME280;11754;42.664;23.594;2024-03-25T05:41:44;94313.63;;;6.61;71.50
23172;BME280;11754;42.664;23.594;2024-03-25T05:44:09;94308.34;;;6.69;71.05
23172;BME280;11754;42.664;23.594;2024-03-25T05:46:35;94311.25;;;6.74;70.86
23172;BME280;11754;42.664;23.594;2024-03-25T05:49:04;94317.06;;;6.92;69.92
23172;BME280;11754;42.664;23.594;2024-03-25T05:51:30;94319.69;;;6.92;69.32
23172;BME280;11754;42.664;23.594;2024-03-25T05:53:56;94326.22;;;6.96;68.59
23172;BME280;11754;42.664;23.594;2024-03-25T05:56:22;94332.28;;;6.97;68.23
23172;BME280;11754;42.664;23.594;2024-03-25T05:58:47;94335.06;;;6.95;68.33
23172;BME280;11754;42.664;23.594;2024-03-25T06:01:13;94355.34;;;7.02;68.28
23172;BME280;11754;42.664;23.594;2024-03-25T06:03:38;94353.00;;;7.07;67.99
23172;BME280;11754;42.664;23.594;2024-03-25T06:06:04;94360.03;;;6.83;68.12
23172;BME280;11754;42.664;23.594;2024-03-25T06:08:29;94359.38;;;6.81;68.30
23172;BME280;11754;42.664;23.594;2024-03-25T06:11:00;94364.59;;;6.81;68.26
23172;BME280;11754;42.664;23.594;2024-03-25T06:13:26;94374.75;;;6.84;68.13
23172;BME280;11754;42.664;23.594;2024-03-25T06:15:51;94371.16;;;6.85;67.18
23172;BME280;11754;42.664;23.594;2024-03-25T06:18:17;94377.00;;;6.95;67.71
23172;BME280;11754;42.664;23.594;2024-03-25T06:20:42;94378.56;;;7.13;67.99
23172;BME280;11754;42.664;23.594;2024-03-25T06:23:08;94383.13;;;7.19;66.47
23172;BME280;11754;42.664;23.594;2024-03-25T06:25:33;94392.72;;;7.04;66.22
23172;BME280;11754;42.664;23.594;2024-03-25T06:28:00;94380.88;;;7.08;66.94
23172;BME280;11754;42.664;23.594;2024-03-25T06:30:26;94396.72;;;7.22;66.32
23172;BME280;11754;42.664;23.594;2024-03-25T06:33:10;94401.91;;;7.31;65.49
23172;BME280;11754;42.664;23.594;2024-03-25T06:35:53;94400.75;;;7.56;66.16
23172;BME280;11754;42.664;23.594;2024-03-25T06:38:19;94406.84;;;7.80;64.37
23172;BME280;11754;42.664;23.594;2024-03-25T06:40:47;94412.22;;;7.86;62.49
23172;BME280;11754;42.664;23.594;2024-03-25T06:43:13;94410.38;;;8.10;61.78
23172;BME280;11754;42.664;23.594;2024-03-25T06:45:41;94413.72;;;8.04;61.50
23172;BME280;11754;42.664;23.594;2024-03-25T06:48:06;94429.19;;;8.36;61.91
23172;BME280;11754;42.664;23.594;2024-03-25T06:50:32;94433.41;;;8.46;58.50
23172;BME280;11754;42.664;23.594;2024-03-25T06:52:57;94422.25;;;8.43;58.45
23172;BME280;11754;42.664;23.594;2024-03-25T06:55:22;94428.56;;;8.72;58.89
23172;BME280;11754;42.664;23.594;2024-03-25T06:57:52;94425.06;;;8.95;57.71
23172;BME280;11754;42.664;23.594;2024-03-25T07:00:18;94424.31;;;9.01;56.80
23172;BME280;11754;42.664;23.594;2024-03-25T07:02:45;94429.28;;;9.25;57.29
23172;BME280;11754;42.664;23.594;2024-03-25T07:05:10;94430.66;;;9.57;57.77
23172;BME280;11754;42.664;23.594;2024-03-25T07:07:36;94431.00;;;9.69;56.20
23172;BME280;11754;42.664;23.594;2024-03-25T07:10:01;94420.63;;;9.82;55.60
23172;BME280;11754;42.664;23.594;2024-03-25T07:12:27;94436.34;;;9.97;53.65
23172;BME280;11754;42.664;23.594;2024-03-25T07:14:53;94431.91;;;9.98;54.92
23172;BME280;11754;42.664;23.594;2024-03-25T07:17:19;94432.72;;;9.98;53.45
23172;BME280;11754;42.664;23.594;2024-03-25T07:19:47;94421.72;;;9.73;53.83
23172;BME280;11754;42.664;23.594;2024-03-25T07:22:12;94427.13;;;9.86;54.55
23172;BME280;11754;42.664;23.594;2024-03-25T07:24:38;94429.41;;;10.11;54.08
23172;BME280;11754;42.664;23.594;2024-03-25T07:27:03;94432.53;;;10.21;54.49
23172;BME280;11754;42.664;23.594;2024-03-25T07:29:29;94436.34;;;10.62;52.51
23172;BME280;11754;42.664;23.594;2024-03-25T07:31:54;94439.03;;;10.96;50.90
23172;BME280;11754;42.664;23.594;2024-03-25T07:34:20;94435.56;;;11.37;50.23
23172;BME280;11754;42.664;23.594;2024-03-25T07:36:45;94436.84;;;11.48;49.05
23172;BME280;11754;42.664;23.594;2024-03-25T07:39:10;94440.44;;;11.34;50.01
23172;BME280;11754;42.664;23.594;2024-03-25T07:41:39;94442.13;;;11.48;50.93
23172;BME280;11754;42.664;23.594;2024-03-25T07:44:04;94434.19;;;11.06;50.09
23172;BME280;11754;42.664;23.594;2024-03-25T07:46:30;94452.69;;;10.78;49.37
23172;BME280;11754;42.664;23.594;2024-03-25T07:48:55;94436.94;;;10.92;49.61
23172;BME280;11754;42.664;23.594;2024-03-25T07:51:21;94435.84;;;11.14;50.30
23172;BME280;11754;42.664;23.594;2024-03-25T07:53:47;94439.88;;;11.03;49.13
23172;BME280;11754;42.664;23.594;2024-03-25T07:56:12;94447.72;;;11.31;48.87
23172;BME280;11754;42.664;23.594;2024-03-25T07:58:38;94449.31;;;11.74;48.96
23172;BME280;11754;42.664;23.594;2024-03-25T08:01:03;94447.16;;;11.84;48.21
23172;BME280;11754;42.664;23.594;2024-03-25T08:03:29;94450.31;;;11.66;48.04
23172;BME280;11754;42.664;23.594;2024-03-25T08:05:55;94448.59;;;12.00;47.76
23172;BME280;11754;42.664;23.594;2024-03-25T08:08:20;94445.97;;;12.00;47.74
23172;BME280;11754;42.664;23.594;2024-03-25T08:10:46;94450.75;;;11.76;47.27
23172;BME280;11754;42.664;23.594;2024-03-25T08:13:11;94456.44;;;11.73;47.26
23172;BME280;11754;42.664;23.594;2024-03-25T08:15:36;94462.25;;;11.55;46.42
23172;BME280;11754;42.664;23.594;2024-03-25T08:18:02;94451.09;;;11.60;47.52
23172;BME280;11754;42.664;23.594;2024-03-25T08:20:27;94444.09;;;11.33;47.76
23172;BME280;11754;42.664;23.594;2024-03-25T08:22:53;94449.66;;;11.51;47.99
23172;BME280;11754;42.664;23.594;2024-03-25T08:25:18;94450.13;;;10.92;49.17
23172;BME280;11754;42.664;23.594;2024-03-25T08:27:44;94454.00;;;10.89;48.06
23172;BME280;11754;42.664;23.594;2024-03-25T08:30:10;94456.81;;;11.22;47.10
23172;BME280;11754;42.664;23.594;2024-03-25T08:32:35;94458.59;;;11.57;46.10
23172;BME280;11754;42.664;23.594;2024-03-25T08:35:01;94462.03;;;11.57;47.63
23172;BME280;11754;42.664;23.594;2024-03-25T08:37:26;94460.25;;;12.12;45.76
23172;BME280;11754;42.664;23.594;2024-03-25T08:39:51;94462.72;;;12.60;44.83
23172;BME280;11754;42.664;23.594;2024-03-25T08:42:17;94458.66;;;12.78;44.46
23172;BME280;11754;42.664;23.594;2024-03-25T08:44:42;94464.53;;;12.93;43.25
23172;BME280;11754;42.664;23.594;2024-03-25T08:47:08;94463.06;;;13.37;42.19
23172;BME280;11754;42.664;23.594;2024-03-25T08:49:33;94460.84;;;13.92;42.37
23172;BME280;11754;42.664;23.594;2024-03-25T08:51:58;94463.53;;;14.17;40.79
23172;BME280;11754;42.664;23.594;2024-03-25T08:54:24;94454.63;;;14.11;40.90
23172;BME280;11754;42.664;23.594;2024-03-25T08:56:49;94467.06;;;13.59;42.27
23172;BME280;11754;42.664;23.594;2024-03-25T08:59:15;94470.03;;;13.83;41.69
23172;BME280;11754;42.664;23.594;2024-03-25T09:01:40;94464.59;;;14.48;40.37
23172;BME280;11754;42.664;23.594;2024-03-25T09:04:06;94465.16;;;14.56;39.74
23172;BME280;11754;42.664;23.594;2024-03-25T09:06:31;94461.16;;;14.02;40.96
23172;BME280;11754;42.664;23.594;2024-03-25T09:08:56;94480.50;;;14.48;39.10
23172;BME280;11754;42.664;23.594;2024-03-25T09:11:40;94475.41;;;15.83;37.94
23172;BME280;11754;42.664;23.594;2024-03-25T09:14:05;94457.41;;;15.67;36.11
23172;BME280;11754;42.664;23.594;2024-03-25T09:16:31;94461.28;;;15.64;36.55
23172;BME280;11754;42.664;23.594;2024-03-25T09:18:57;94473.19;;;14.75;37.11
23172;BME280;11754;42.664;23.594;2024-03-25T09:21:23;94481.25;;;14.61;37.98
23172;BME280;11754;42.664;23.594;2024-03-25T09:23:50;94479.34;;;14.37;38.89
23172;BME280;11754;42.664;23.594;2024-03-25T09:26:15;94481.16;;;14.43;37.99
23172;BME280;11754;42.664;23.594;2024-03-25T09:28:40;94479.22;;;14.57;37.81
23172;BME280;11754;42.664;23.594;2024-03-25T09:31:06;94480.47;;;14.16;39.41
23172;BME280;11754;42.664;23.594;2024-03-25T09:33:31;94490.97;;;13.98;39.42
23172;BME280;11754;42.664;23.594;2024-03-25T09:35:57;94484.06;;;15.17;37.97
23172;BME280;11754;42.664;23.594;2024-03-25T09:38:22;94485.09;;;15.59;37.31
23172;BME280;11754;42.664;23.594;2024-03-25T09:40:47;94489.47;;;16.50;34.93
23172;BME280;11754;42.664;23.594;2024-03-25T09:43:23;94470.81;;;19.01;32.67
23172;BME280;11754;42.664;23.594;2024-03-25T09:45:49;94473.28;;;21.74;29.04
23172;BME280;11754;42.664;23.594;2024-03-25T09:48:19;94480.53;;;24.26;25.18
23172;BME280;11754;42.664;23.594;2024-03-25T09:50:46;94477.28;;;24.88;23.45
23172;BME280;11754;42.664;23.594;2024-03-25T09:53:12;94470.72;;;24.55;23.66
23172;BME280;11754;42.664;23.594;2024-03-25T09:55:38;94470.97;;;24.59;23.24
23172;BME280;11754;42.664;23.594;2024-03-25T09:58:03;94465.78;;;25.46;22.71
23172;BME280;11754;42.664;23.594;2024-03-25T10:00:30;94465.84;;;26.18;21.16
23172;BME280;11754;42.664;23.594;2024-03-25T10:02:55;94469.44;;;27.65;20.25
23172;BME280;11754;42.664;23.594;2024-03-25T10:05:21;94460.91;;;28.18;19.67
23172;BME280;11754;42.664;23.594;2024-03-25T10:07:47;94459.22;;;29.00;18.67
23172;BME280;11754;42.664;23.594;2024-03-25T10:10:12;94461.03;;;28.77;18.89
23172;BME280;11754;42.664;23.594;2024-03-25T10:12:37;94468.97;;;29.23;18.72
23172;BME280;11754;42.664;23.594;2024-03-25T10:15:03;94463.78;;;28.49;19.24
23172;BME280;11754;42.664;23.594;2024-03-25T10:17:32;94470.13;;;28.17;19.56
23172;BME280;11754;42.664;23.594;2024-03-25T10:19:58;94464.81;;;26.62;20.78
23172;BME280;11754;42.664;23.594;2024-03-25T10:22:23;94478.97;;;24.14;21.90
23172;BME280;11754;42.664;23.594;2024-03-25T10:24:49;94479.13;;;23.27;23.42
23172;BME280;11754;42.664;23.594;2024-03-25T10:27:18;94474.31;;;26.11;21.14
23172;BME280;11754;42.664;23.594;2024-03-25T10:29:47;94476.75;;;25.26;21.63
23172;BME280;11754;42.664;23.594;2024-03-25T10:32:14;94455.19;;;27.07;20.87
23172;BME280;11754;42.664;23.594;2024-03-25T10:34:41;94474.38;;;27.30;18.77
23172;BME280;11754;42.664;23.594;2024-03-25T10:37:09;94477.00;;;26.97;19.87
23172;BME280;11754;42.664;23.594;2024-03-25T10:39:39;94475.31;;;23.64;22.95
23172;BME280;11754;42.664;23.594;2024-03-25T10:42:05;94489.88;;;23.43;23.62
23172;BME280;11754;42.664;23.594;2024-03-25T10:44:31;94494.56;;;22.44;24.57
23172;BME280;11754;42.664;23.594;2024-03-25T10:47:02;94500.50;;;20.86;26.25
23172;BME280;11754;42.664;23.594;2024-03-25T10:49:40;94489.88;;;19.60;28.25
23172;BME280;11754;42.664;23.594;2024-03-25T10:52:08;94480.44;;;18.56;29.26
23172;BME280;11754;42.664;23.594;2024-03-25T10:54:36;94492.88;;;17.82;30.99
23172;BME280;11754;42.664;23.594;2024-03-25T10:57:03;94477.56;;;20.47;28.07
23172;BME280;11754;42.664;23.594;2024-03-25T10:59:29;94480.53;;;20.72;25.26
23172;BME280;11754;42.664;23.594;2024-03-25T11:01:55;94471.91;;;19.38;27.22
23172;BME280;11754;42.664;23.594;2024-03-25T11:04:22;94476.94;;;18.84;28.37
23172;BME280;11754;42.664;23.594;2024-03-25T11:06:48;94473.13;;;17.94;29.23
23172;BME280;11754;42.664;23.594;2024-03-25T11:09:25;94470.94;;;19.11;27.66
23172;BME280;11754;42.664;23.594;2024-03-25T11:11:52;94449.44;;;19.95;26.43
23172;BME280;11754;42.664;23.594;2024-03-25T11:14:18;94454.19;;;19.71;26.34
23172;BME280;11754;42.664;23.594;2024-03-25T11:16:43;94456.34;;;20.94;26.00
23172;BME280;11754;42.664;23.594;2024-03-25T11:19:11;94445.69;;;21.37;24.14
23172;BME280;11754;42.664;23.594;2024-03-25T11:21:36;94445.47;;;23.40;24.05
23172;BME280;11754;42.664;23.594;2024-03-25T11:24:08;94457.53;;;22.66;23.40
23172;BME280;11754;42.664;23.594;2024-03-25T11:26:34;94477.97;;;19.89;25.66
23172;BME280;11754;42.664;23.594;2024-03-25T11:29:01;94496.78;;;18.60;29.07
23172;BME280;11754;42.664;23.594;2024-03-25T11:31:27;94516.63;;;17.60;32.19
23172;BME280;11754;42.664;23.594;2024-03-25T11:33:53;94503.91;;;16.43;35.41
23172;BME280;11754;42.664;23.594;2024-03-25T11:36:20;94500.47;;;15.32;37.88
23172;BME280;11754;42.664;23.594;2024-03-25T11:38:57;94502.91;;;14.58;39.54
23172;BME280;11754;42.664;23.594;2024-03-25T11:41:23;94518.78;;;13.82;38.40
23172;BME280;11754;42.664;23.594;2024-03-25T11:43:50;94549.88;;;13.28;39.68
23172;BME280;11754;42.664;23.594;2024-03-25T11:46:18;94576.66;;;12.52;42.06
23172;BME280;11754;42.664;23.594;2024-03-25T11:48:44;94556.09;;;11.93;43.25
23172;BME280;11754;42.664;23.594;2024-03-25T11:51:12;94552.25;;;11.54;43.80
23172;BME280;11754;42.664;23.594;2024-03-25T11:53:38;94544.06;;;11.49;45.18
23172;BME280;11754;42.664;23.594;2024-03-25T11:56:03;94529.94;;;11.63;46.12
23172;BME280;11754;42.664;23.594;2024-03-25T11:58:29;94523.91;;;11.83;45.02
23172;BME280;11754;42.664;23.594;2024-03-25T12:00:54;94532.66;;;12.31;43.97
23172;BME280;11754;42.664;23.594;2024-03-25T12:03:22;94519.31;;;17.83;37.74
23172;BME280;11754;42.664;23.594;2024-03-25T12:05:47;94495.31;;;26.20;26.34
23172;BME280;11754;42.664;23.594;2024-03-25T12:08:12;94485.69;;;29.16;21.00
23172;BME280;11754;42.664;23.594;2024-03-25T12:10:38;94485.78;;;26.70;22.17
23172;BME280;11754;42.664;23.594;2024-03-25T12:13:23;94486.06;;;24.60;24.90
23172;BME280;11754;42.664;23.594;2024-03-25T12:15:50;94481.00;;;21.61;26.55
23172;BME280;11754;42.664;23.594;2024-03-25T12:18:17;94478.47;;;20.30;29.52
23172;BME280;11754;42.664;23.594;2024-03-25T12:20:45;94475.00;;;21.96;26.91
23172;BME280;11754;42.664;23.594;2024-03-25T12:23:10;94481.28;;;23.20;23.88
23172;BME280;11754;42.664;23.594;2024-03-25T12:25:36;94473.41;;;23.85;25.57
23172;BME280;11754;42.664;23.594;2024-03-25T12:28:01;94478.09;;;27.67;22.18
23172;BME280;11754;42.664;23.594;2024-03-25T12:30:33;94468.31;;;28.54;20.62
23172;BME280;11754;42.664;23.594;2024-03-25T12:33:00;94487.13;;;26.25;20.33
23172;BME280;11754;42.664;23.594;2024-03-25T12:35:25;94481.22;;;23.61;24.00
23172;BME280;11754;42.664;23.594;2024-03-25T12:37:52;94489.69;;;21.35;25.67
23172;BME280;11754;42.664;23.594;2024-03-25T12:40:27;94487.34;;;20.09;28.00
23172;BME280;11754;42.664;23.594;2024-03-25T12:42:53;94486.50;;;19.48;28.98
23172;BME280;11754;42.664;23.594;2024-03-25T12:45:20;94493.50;;;19.87;28.34
23172;BME280;11754;42.664;23.594;2024-03-25T12:47:46;94491.69;;;19.37;27.81
23172;BME280;11754;42.664;23.594;2024-03-25T12:50:11;94494.63;;;19.19;28.81